sensor_id;sensor_type;location;lat;lon;timestamp;P1;durP1;ratioP1;P2;durP2;ratioP2
42840;SDS011;28491;46.898;7.660;2024-03-06T00:02:10;7.35;;;3.13;;
42840;SDS011;28491;46.898;7.660;2024-03-06T00:04:36;5.00;;;3.63;;
42840;SDS011;28491;46.898;7.660;2024-03-06T00:07:02;4.13;;;3.25;;
42840;SDS011;28491;46.898;7.660;2024-03-06T00:09:28;3.30;;;2.38;;
42840;SDS011;28491;46.898;7.660;2024-03-06T00:11:54;3.33;;;2.53;;
42840;SDS011;28491;46.898;7.660;2024-03-06T00:14:20;3.28;;;2.40;;
42840;SDS011;28491;46.898;7.660;2024-03-06T00:16:49;2.72;;;1.85;;
42840;SDS011;28491;46.898;7.660;2024-03-06T00:19:15;4.72;;;1.80;;
42840;SDS011;28491;46.898;7.660;2024-03-06T00:21:41;3.72;;;1.95;;
42840;SDS011;28491;46.898;7.660;2024-03-06T00:24:07;2.38;;;1.75;;
42840;SDS011;28491;46.898;7.660;2024-03-06T00:26:32;2.50;;;1.63;;
42840;SDS011;28491;46.898;7.660;2024-03-06T00:28:58;1.63;;;1.30;;
42840;SDS011;28491;46.898;7.660;2024-03-06T00:31:23;1.83;;;1.58;;
42840;SDS011;28491;46.898;7.660;2024-03-06T00:33:49;3.35;;;1.90;;
42840;SDS011;28491;46.898;7.660;2024-03-06T00:36:14;1.63;;;1.33;;
42840;SDS011;28491;46.898;7.660;2024-03-06T00:38:40;1.17;;;1.02;;
42840;SDS011;28491;46.898;7.660;2024-03-06T00:41:05;1.50;;;1.20;;
42840;SDS011;28491;46.898;7.660;2024-03-06T00:43:31;1.90;;;1.25;;
42840;SDS011;28491;46.898;7.660;2024-03-06T00:45:56;1.65;;;1.35;;
42840;SDS011;28491;46.898;7.660;2024-03-06T00:48:22;1.50;;;1.38;;
42840;SDS011;28491;46.898;7.660;2024-03-06T00:50:48;1.80;;;1.23;;
42840;SDS011;28491;46.898;7.660;2024-03-06T00:53:13;2.90;;;1.30;;
42840;SDS011;28491;46.898;7.660;2024-03-06T00:55:39;2.17;;;1.35;;
42840;SDS011;28491;46.898;7.660;2024-03-06T00:58:05;3.03;;;1.83;;
42840;SDS011;28491;46.898;7.660;2024-03-06T01:00:31;2.05;;;1.23;;
42840;SDS011;28491;46.898;7.660;2024-03-06T01:02:57;2.17;;;1.70;;
42840;SDS011;28491;46.898;7.660;2024-03-06T01:05:23;2.63;;;1.70;;
42840;SDS011;28491;46.898;7.660;2024-03-06T01:07:48;2.28;;;1.70;;
42840;SDS011;28491;46.898;7.660;2024-03-06T01:10:14;2.30;;;1.63;;
42840;SDS011;28491;46.898;7.660;2024-03-06T01:12:39;1.40;;;1.23;;
42840;SDS011;28491;46.898;7.660;2024-03-06T01:15:05;3.10;;;1.23;;
42840;SDS011;28491;46.898;7.660;2024-03-06T01:17:32;1.73;;;1.25;;
42840;SDS011;28491;46.898;7.660;2024-03-06T01:19:58;2.70;;;1.48;;
42840;SDS011;28491;46.898;7.660;2024-03-06T01:22:28;2.33;;;1.88;;
42840;SDS011;28491;46.898;7.660;2024-03-06T01:25:02;2.85;;;1.80;;
42840;SDS011;28491;46.898;7.660;2024-03-06T01:27:27;1.73;;;1.40;;
42840;SDS011;28491;46.898;7.660;2024-03-06T01:29:53;3.05;;;1.88;;
42840;SDS011;28491;46.898;7.660;2024-03-06T01:32:19;2.30;;;1.55;;
42840;SDS011;28491;46.898;7.660;2024-03-06T01:34:44;3.03;;;1.90;;
42840;SDS011;28491;46.898;7.660;2024-03-06T01:37:10;4.35;;;1.90;;
42840;SDS011;28491;46.898;7.660;2024-03-06T01:39:36;2.75;;;1.90;;
42840;SDS011;28491;46.898;7.660;2024-03-06T01:42:02;2.90;;;2.20;;
42840;SDS011;28491;46.898;7.660;2024-03-06T01:44:28;2.90;;;1.98;;
42840;SDS011;28491;46.898;7.660;2024-03-06T01:46:54;2.50;;;1.40;;
42840;SDS011;28491;46.898;7.660;2024-03-06T01:49:19;2.08;;;1.70;;
42840;SDS011;28491;46.898;7.660;2024-03-06T01:51:48;2.88;;;1.45;;
42840;SDS011;28491;46.898;7.660;2024-03-06T01:56:45;3.47;;;2.15;;
42840;SDS011;28491;46.898;7.660;2024-03-06T01:59:12;2.25;;;1.70;;
42840;SDS011;28491;46.898;7.660;2024-03-06T02:01:40;4.60;;;2.05;;
42840;SDS011;28491;46.898;7.660;2024-03-06T02:04:06;2.28;;;1.80;;
42840;SDS011;28491;46.898;7.660;2024-03-06T02:06:35;2.95;;;1.90;;
42840;SDS011;28491;46.898;7.660;2024-03-06T02:09:01;2.67;;;1.80;;
42840;SDS011;28491;46.898;7.660;2024-03-06T02:11:28;2.70;;;1.80;;
42840;SDS011;28491;46.898;7.660;2024-03-06T02:13:54;2.25;;;1.30;;
42840;SDS011;28491;46.898;7.660;2024-03-06T02:16:20;1.77;;;1.40;;
42840;SDS011;28491;46.898;7.660;2024-03-06T02:18:54;4.20;;;1.70;;
42840;SDS011;28491;46.898;7.660;2024-03-06T02:21:22;2.30;;;1.60;;
42840;SDS011;28491;46.898;7.660;2024-03-06T02:23:49;2.13;;;1.63;;
42840;SDS011;28491;46.898;7.660;2024-03-06T02:26:18;1.88;;;1.48;;
42840;SDS011;28491;46.898;7.660;2024-03-06T02:28:48;1.55;;;1.25;;
42840;SDS011;28491;46.898;7.660;2024-03-06T02:31:17;2.13;;;1.40;;
42840;SDS011;28491;46.898;7.660;2024-03-06T02:33:44;1.48;;;1.13;;
42840;SDS011;28491;46.898;7.660;2024-03-06T02:36:14;1.88;;;1.48;;
42840;SDS011;28491;46.898;7.660;2024-03-06T02:38:40;2.13;;;1.50;;
42840;SDS011;28491;46.898;7.660;2024-03-06T02:41:06;3.13;;;2.38;;
42840;SDS011;28491;46.898;7.660;2024-03-06T02:43:35;1.98;;;1.52;;
42840;SDS011;28491;46.898;7.660;2024-03-06T02:46:01;2.00;;;1.40;;
42840;SDS011;28491;46.898;7.660;2024-03-06T02:48:27;1.20;;;1.10;;
42840;SDS011;28491;46.898;7.660;2024-03-06T02:50:53;1.35;;;1.10;;
42840;SDS011;28491;46.898;7.660;2024-03-06T02:53:19;1.10;;;1.00;;
42840;SDS011;28491;46.898;7.660;2024-03-06T02:55:44;1.55;;;1.30;;
42840;SDS011;28491;46.898;7.660;2024-03-06T02:58:10;1.80;;;1.55;;
42840;SDS011;28491;46.898;7.660;2024-03-06T03:00:36;1.85;;;1.30;;
42840;SDS011;28491;46.898;7.660;2024-03-06T03:03:01;1.52;;;1.30;;
42840;SDS011;28491;46.898;7.660;2024-03-06T03:05:27;1.95;;;1.63;;
42840;SDS011;28491;46.898;7.660;2024-03-06T03:07:53;2.22;;;1.60;;
42840;SDS011;28491;46.898;7.660;2024-03-06T03:10:18;1.83;;;1.42;;
42840;SDS011;28491;46.898;7.660;2024-03-06T03:12:44;1.77;;;1.23;;
42840;SDS011;28491;46.898;7.660;2024-03-06T03:15:10;1.55;;;1.17;;
42840;SDS011;28491;46.898;7.660;2024-03-06T03:17:36;1.25;;;1.02;;
42840;SDS011;28491;46.898;7.660;2024-03-06T03:20:02;1.77;;;1.00;;
42840;SDS011;28491;46.898;7.660;2024-03-06T03:22:38;1.13;;;0.80;;
42840;SDS011;28491;46.898;7.660;2024-03-06T03:25:08;1.38;;;1.08;;
42840;SDS011;28491;46.898;7.660;2024-03-06T03:27:35;2.10;;;1.30;;
42840;SDS011;28491;46.898;7.660;2024-03-06T03:30:01;1.98;;;1.45;;
42840;SDS011;28491;46.898;7.660;2024-03-06T03:32:28;1.50;;;1.20;;
42840;SDS011;28491;46.898;7.660;2024-03-06T03:34:53;1.88;;;1.33;;
42840;SDS011;28491;46.898;7.660;2024-03-06T03:37:19;2.38;;;1.45;;
42840;SDS011;28491;46.898;7.660;2024-03-06T03:39:44;3.40;;;2.05;;
42840;SDS011;28491;46.898;7.660;2024-03-06T03:42:11;5.28;;;2.10;;
42840;SDS011;28491;46.898;7.660;2024-03-06T03:44:36;2.60;;;2.10;;
42840;SDS011;28491;46.898;7.660;2024-03-06T03:47:02;2.30;;;1.77;;
42840;SDS011;28491;46.898;7.660;2024-03-06T03:49:27;3.15;;;2.20;;
42840;SDS011;28491;46.898;7.660;2024-03-06T03:51:53;2.25;;;1.80;;
42840;SDS011;28491;46.898;7.660;2024-03-06T03:54:18;1.50;;;1.30;;
42840;SDS011;28491;46.898;7.660;2024-03-06T03:56:44;2.17;;;1.30;;
42840;SDS011;28491;46.898;7.660;2024-03-06T03:59:10;2.17;;;1.60;;
42840;SDS011;28491;46.898;7.660;2024-03-06T04:01:35;4.38;;;2.03;;
42840;SDS011;28491;46.898;7.660;2024-03-06T04:04:01;3.28;;;2.00;;
42840;SDS011;28491;46.898;7.660;2024-03-06T04:06:26;2.58;;;2.10;;
42840;SDS011;28491;46.898;7.660;2024-03-06T04:08:52;2.80;;;1.83;;
42840;SDS011;28491;46.898;7.660;2024-03-06T04:11:18;2.25;;;1.65;;
42840;SDS011;28491;46.898;7.660;2024-03-06T04:13:43;1.40;;;1.17;;
42840;SDS011;28491;46.898;7.660;2024-03-06T04:16:09;1.58;;;1.30;;
42840;SDS011;28491;46.898;7.660;2024-03-06T04:18:34;1.67;;;1.10;;
42840;SDS011;28491;46.898;7.660;2024-03-06T04:21:04;2.85;;;1.30;;
42840;SDS011;28491;46.898;7.660;2024-03-06T04:23:30;1.50;;;1.08;;
42840;SDS011;28491;46.898;7.660;2024-03-06T04:25:56;1.10;;;1.00;;
42840;SDS011;28491;46.898;7.660;2024-03-06T04:28:22;2.88;;;1.17;;
42840;SDS011;28491;46.898;7.660;2024-03-06T04:30:47;1.30;;;0.95;;
42840;SDS011;28491;46.898;7.660;2024-03-06T04:33:13;1.15;;;1.05;;
42840;SDS011;28491;46.898;7.660;2024-03-06T04:35:40;1.67;;;1.20;;
42840;SDS011;28491;46.898;7.660;2024-03-06T04:38:06;1.65;;;1.20;;
42840;SDS011;28491;46.898;7.660;2024-03-06T04:40:31;1.67;;;1.35;;
42840;SDS011;28491;46.898;7.660;2024-03-06T04:42:59;1.98;;;1.48;;
42840;SDS011;28491;46.898;7.660;2024-03-06T04:45:25;2.58;;;1.55;;
42840;SDS011;28491;46.898;7.660;2024-03-06T04:47:50;3.25;;;1.35;;
42840;SDS011;28491;46.898;7.660;2024-03-06T04:50:16;1.90;;;1.70;;
42840;SDS011;28491;46.898;7.660;2024-03-06T04:52:42;2.28;;;1.65;;
42840;SDS011;28491;46.898;7.660;2024-03-06T04:55:09;2.42;;;1.70;;
42840;SDS011;28491;46.898;7.660;2024-03-06T04:57:36;2.92;;;1.98;;
42840;SDS011;28491;46.898;7.660;2024-03-06T05:00:02;2.28;;;1.70;;
42840;SDS011;28491;46.898;7.660;2024-03-06T05:02:35;2.88;;;2.05;;
42840;SDS011;28491;46.898;7.660;2024-03-06T05:05:02;6.40;;;2.10;;
42840;SDS011;28491;46.898;7.660;2024-03-06T05:07:28;3.15;;;2.22;;
42840;SDS011;28491;46.898;7.660;2024-03-06T05:09:55;3.03;;;2.20;;
42840;SDS011;28491;46.898;7.660;2024-03-06T05:12:22;3.22;;;2.28;;
42840;SDS011;28491;46.898;7.660;2024-03-06T05:14:54;2.78;;;2.17;;
42840;SDS011;28491;46.898;7.660;2024-03-06T05:17:20;3.13;;;2.45;;
42840;SDS011;28491;46.898;7.660;2024-03-06T05:19:46;2.85;;;1.85;;
42840;SDS011;28491;46.898;7.660;2024-03-06T05:22:14;2.72;;;1.90;;
42840;SDS011;28491;46.898;7.660;2024-03-06T05:24:40;2.45;;;2.03;;
42840;SDS011;28491;46.898;7.660;2024-03-06T05:27:06;2.65;;;1.92;;
42840;SDS011;28491;46.898;7.660;2024-03-06T05:29:33;3.33;;;2.30;;
42840;SDS011;28491;46.898;7.660;2024-03-06T05:31:58;3.40;;;2.45;;
42840;SDS011;28491;46.898;7.660;2024-03-06T05:34:24;4.40;;;2.58;;
42840;SDS011;28491;46.898;7.660;2024-03-06T05:36:49;3.53;;;2.80;;
42840;SDS011;28491;46.898;7.660;2024-03-06T05:39:15;5.50;;;2.95;;
42840;SDS011;28491;46.898;7.660;2024-03-06T05:41:42;4.82;;;3.10;;
42840;SDS011;28491;46.898;7.660;2024-03-06T05:44:09;5.32;;;3.58;;
42840;SDS011;28491;46.898;7.660;2024-03-06T05:46:35;4.47;;;2.85;;
42840;SDS011;28491;46.898;7.660;2024-03-06T05:49:01;7.85;;;3.97;;
42840;SDS011;28491;46.898;7.660;2024-03-06T05:51:27;6.22;;;4.57;;
42840;SDS011;28491;46.898;7.660;2024-03-06T05:53:53;5.15;;;3.58;;
42840;SDS011;28491;46.898;7.660;2024-03-06T05:56:19;4.72;;;3.13;;
42840;SDS011;28491;46.898;7.660;2024-03-06T05:58:45;4.70;;;3.05;;
42840;SDS011;28491;46.898;7.660;2024-03-06T06:01:11;4.15;;;3.20;;
42840;SDS011;28491;46.898;7.660;2024-03-06T06:03:38;3.95;;;2.53;;
42840;SDS011;28491;46.898;7.660;2024-03-06T06:06:04;3.90;;;2.53;;
42840;SDS011;28491;46.898;7.660;2024-03-06T06:08:30;5.97;;;3.40;;
42840;SDS011;28491;46.898;7.660;2024-03-06T06:10:55;4.63;;;3.40;;
42840;SDS011;28491;46.898;7.660;2024-03-06T06:13:21;5.18;;;3.60;;
42840;SDS011;28491;46.898;7.660;2024-03-06T06:15:46;4.55;;;3.25;;
42840;SDS011;28491;46.898;7.660;2024-03-06T06:18:12;5.70;;;3.55;;
42840;SDS011;28491;46.898;7.660;2024-03-06T06:20:38;7.35;;;4.10;;
42840;SDS011;28491;46.898;7.660;2024-03-06T06:23:05;5.60;;;3.13;;
42840;SDS011;28491;46.898;7.660;2024-03-06T06:25:31;4.88;;;3.30;;
42840;SDS011;28491;46.898;7.660;2024-03-06T06:27:56;5.80;;;3.33;;
42840;SDS011;28491;46.898;7.660;2024-03-06T06:30:22;4.32;;;3.15;;
42840;SDS011;28491;46.898;7.660;2024-03-06T06:32:47;5.55;;;3.33;;
42840;SDS011;28491;46.898;7.660;2024-03-06T06:35:13;3.42;;;2.40;;
42840;SDS011;28491;46.898;7.660;2024-03-06T06:37:39;3.90;;;2.60;;
42840;SDS011;28491;46.898;7.660;2024-03-06T06:40:08;2.88;;;2.10;;
42840;SDS011;28491;46.898;7.660;2024-03-06T06:42:35;3.38;;;2.20;;
42840;SDS011;28491;46.898;7.660;2024-03-06T06:45:00;2.80;;;2.13;;
42840;SDS011;28491;46.898;7.660;2024-03-06T06:47:27;3.75;;;2.35;;
42840;SDS011;28491;46.898;7.660;2024-03-06T06:49:53;3.53;;;2.47;;
42840;SDS011;28491;46.898;7.660;2024-03-06T06:52:19;3.28;;;2.17;;
42840;SDS011;28491;46.898;7.660;2024-03-06T06:54:45;3.78;;;2.80;;
42840;SDS011;28491;46.898;7.660;2024-03-06T06:57:10;4.72;;;3.08;;
42840;SDS011;28491;46.898;7.660;2024-03-06T06:59:36;5.93;;;4.00;;
42840;SDS011;28491;46.898;7.660;2024-03-06T07:02:02;5.53;;;4.00;;
42840;SDS011;28491;46.898;7.660;2024-03-06T07:04:28;6.47;;;4.10;;
42840;SDS011;28491;46.898;7.660;2024-03-06T07:06:53;7.22;;;4.50;;
42840;SDS011;28491;46.898;7.660;2024-03-06T07:09:19;9.35;;;5.43;;
42840;SDS011;28491;46.898;7.660;2024-03-06T07:11:45;8.45;;;5.85;;
42840;SDS011;28491;46.898;7.660;2024-03-06T07:14:14;14.48;;;10.05;;
42840;SDS011;28491;46.898;7.660;2024-03-06T07:16:43;17.50;;;12.88;;
42840;SDS011;28491;46.898;7.660;2024-03-06T07:19:09;11.55;;;8.23;;
42840;SDS011;28491;46.898;7.660;2024-03-06T07:21:34;9.18;;;7.55;;
42840;SDS011;28491;46.898;7.660;2024-03-06T07:24:00;7.88;;;6.10;;
42840;SDS011;28491;46.898;7.660;2024-03-06T07:26:25;7.88;;;6.40;;
42840;SDS011;28491;46.898;7.660;2024-03-06T07:28:51;5.47;;;3.85;;
42840;SDS011;28491;46.898;7.660;2024-03-06T07:31:17;4.47;;;3.35;;
42840;SDS011;28491;46.898;7.660;2024-03-06T07:33:43;3.58;;;2.78;;
42840;SDS011;28491;46.898;7.660;2024-03-06T07:36:09;4.55;;;2.97;;
42840;SDS011;28491;46.898;7.660;2024-03-06T07:38:34;5.80;;;3.17;;
42840;SDS011;28491;46.898;7.660;2024-03-06T07:41:00;5.75;;;3.15;;
42840;SDS011;28491;46.898;7.660;2024-03-06T07:43:26;8.40;;;3.50;;
42840;SDS011;28491;46.898;7.660;2024-03-06T07:45:51;7.55;;;4.43;;
42840;SDS011;28491;46.898;7.660;2024-03-06T07:48:17;9.95;;;6.47;;
42840;SDS011;28491;46.898;7.660;2024-03-06T07:50:42;14.18;;;6.43;;
42840;SDS011;28491;46.898;7.660;2024-03-06T07:53:08;12.30;;;7.38;;
42840;SDS011;28491;46.898;7.660;2024-03-06T07:55:33;9.38;;;6.30;;
42840;SDS011;28491;46.898;7.660;2024-03-06T07:57:59;7.07;;;4.85;;
42840;SDS011;28491;46.898;7.660;2024-03-06T08:00:25;5.93;;;3.95;;
42840;SDS011;28491;46.898;7.660;2024-03-06T08:02:52;3.50;;;2.50;;
42840;SDS011;28491;46.898;7.660;2024-03-06T08:05:17;4.10;;;3.08;;
42840;SDS011;28491;46.898;7.660;2024-03-06T08:07:43;3.08;;;2.38;;
42840;SDS011;28491;46.898;7.660;2024-03-06T08:10:10;4.03;;;2.95;;
42840;SDS011;28491;46.898;7.660;2024-03-06T08:12:39;2.85;;;2.35;;
42840;SDS011;28491;46.898;7.660;2024-03-06T08:15:06;3.20;;;2.38;;
42840;SDS011;28491;46.898;7.660;2024-03-06T08:30:28;5.07;;;3.63;;
42840;SDS011;28491;46.898;7.660;2024-03-06T08:32:55;6.90;;;4.88;;
42840;SDS011;28491;46.898;7.660;2024-03-06T08:35:21;8.20;;;5.22;;
42840;SDS011;28491;46.898;7.660;2024-03-06T08:37:48;8.82;;;4.22;;
42840;SDS011;28491;46.898;7.660;2024-03-06T08:40:15;5.63;;;3.80;;
42840;SDS011;28491;46.898;7.660;2024-03-06T08:42:45;6.20;;;3.78;;
42840;SDS011;28491;46.898;7.660;2024-03-06T08:45:15;6.68;;;4.70;;
42840;SDS011;28491;46.898;7.660;2024-03-06T08:47:42;4.57;;;3.30;;
42840;SDS011;28491;46.898;7.660;2024-03-06T08:50:09;3.97;;;2.78;;
42840;SDS011;28491;46.898;7.660;2024-03-06T08:52:35;3.72;;;2.70;;
42840;SDS011;28491;46.898;7.660;2024-03-06T08:55:02;3.50;;;2.28;;
42840;SDS011;28491;46.898;7.660;2024-03-06T08:57:36;4.13;;;2.55;;
42840;SDS011;28491;46.898;7.660;2024-03-06T09:00:02;3.60;;;2.42;;
42840;SDS011;28491;46.898;7.660;2024-03-06T09:02:29;3.13;;;2.35;;
42840;SDS011;28491;46.898;7.660;2024-03-06T09:04:54;3.58;;;2.67;;
42840;SDS011;28491;46.898;7.660;2024-03-06T09:07:20;3.75;;;2.90;;
42840;SDS011;28491;46.898;7.660;2024-03-06T09:09:48;5.70;;;4.27;;
42840;SDS011;28491;46.898;7.660;2024-03-06T09:12:15;5.05;;;3.17;;
42840;SDS011;28491;46.898;7.660;2024-03-06T09:14:41;4.10;;;2.90;;
42840;SDS011;28491;46.898;7.660;2024-03-06T09:17:07;5.07;;;3.15;;
42840;SDS011;28491;46.898;7.660;2024-03-06T09:19:38;3.65;;;2.80;;
42840;SDS011;28491;46.898;7.660;2024-03-06T09:22:03;3.63;;;2.78;;
42840;SDS011;28491;46.898;7.660;2024-03-06T09:24:29;4.13;;;2.70;;
42840;SDS011;28491;46.898;7.660;2024-03-06T09:26:55;5.22;;;3.15;;
42840;SDS011;28491;46.898;7.660;2024-03-06T09:29:20;7.50;;;2.30;;
42840;SDS011;28491;46.898;7.660;2024-03-06T09:31:46;3.50;;;2.60;;
42840;SDS011;28491;46.898;7.660;2024-03-06T09:34:13;4.40;;;2.63;;
42840;SDS011;28491;46.898;7.660;2024-03-06T09:36:45;7.13;;;3.40;;
42840;SDS011;28491;46.898;7.660;2024-03-06T09:39:12;5.88;;;3.85;;
42840;SDS011;28491;46.898;7.660;2024-03-06T09:41:44;9.35;;;4.88;;
42840;SDS011;28491;46.898;7.660;2024-03-06T09:44:11;7.95;;;4.82;;
42840;SDS011;28491;46.898;7.660;2024-03-06T09:46:37;6.50;;;3.38;;
42840;SDS011;28491;46.898;7.660;2024-03-06T09:49:03;7.13;;;4.50;;
42840;SDS011;28491;46.898;7.660;2024-03-06T09:51:29;7.25;;;4.53;;
42840;SDS011;28491;46.898;7.660;2024-03-06T09:53:55;9.13;;;6.03;;
42840;SDS011;28491;46.898;7.660;2024-03-06T09:56:21;12.90;;;5.78;;
42840;SDS011;28491;46.898;7.660;2024-03-06T09:58:46;7.32;;;4.35;;
42840;SDS011;28491;46.898;7.660;2024-03-06T10:01:12;5.75;;;3.65;;
42840;SDS011;28491;46.898;7.660;2024-03-06T10:03:39;4.88;;;3.30;;
42840;SDS011;28491;46.898;7.660;2024-03-06T10:06:06;5.35;;;3.92;;
42840;SDS011;28491;46.898;7.660;2024-03-06T10:08:32;7.32;;;4.28;;
42840;SDS011;28491;46.898;7.660;2024-03-06T10:10:58;6.68;;;3.70;;
42840;SDS011;28491;46.898;7.660;2024-03-06T10:13:24;6.60;;;4.13;;
42840;SDS011;28491;46.898;7.660;2024-03-06T10:16:00;6.25;;;3.42;;
42840;SDS011;28491;46.898;7.660;2024-03-06T10:18:28;4.65;;;2.95;;
42840;SDS011;28491;46.898;7.660;2024-03-06T10:20:54;4.82;;;3.25;;
42840;SDS011;28491;46.898;7.660;2024-03-06T10:23:20;6.95;;;5.18;;
42840;SDS011;28491;46.898;7.660;2024-03-06T10:25:46;7.32;;;4.50;;
42840;SDS011;28491;46.898;7.660;2024-03-06T10:28:18;7.65;;;4.35;;
42840;SDS011;28491;46.898;7.660;2024-03-06T10:30:45;7.85;;;3.90;;
42840;SDS011;28491;46.898;7.660;2024-03-06T10:33:14;6.70;;;3.55;;
42840;SDS011;28491;46.898;7.660;2024-03-06T10:35:43;3.97;;;3.17;;
42840;SDS011;28491;46.898;7.660;2024-03-06T10:38:10;4.28;;;2.80;;
42840;SDS011;28491;46.898;7.660;2024-03-06T10:40:38;4.10;;;2.95;;
42840;SDS011;28491;46.898;7.660;2024-03-06T10:43:05;6.97;;;3.30;;
42840;SDS011;28491;46.898;7.660;2024-03-06T10:45:37;6.28;;;3.10;;
42840;SDS011;28491;46.898;7.660;2024-03-06T10:48:07;8.98;;;2.90;;
42840;SDS011;28491;46.898;7.660;2024-03-06T10:50:36;4.65;;;2.60;;
42840;SDS011;28491;46.898;7.660;2024-03-06T10:53:04;4.13;;;2.63;;
42840;SDS011;28491;46.898;7.660;2024-03-06T10:55:35;4.43;;;3.42;;
42840;SDS011;28491;46.898;7.660;2024-03-06T10:58:01;4.60;;;3.35;;
42840;SDS011;28491;46.898;7.660;2024-03-06T11:00:37;6.07;;;3.90;;
42840;SDS011;28491;46.898;7.660;2024-03-06T11:03:07;4.10;;;3.10;;
42840;SDS011;28491;46.898;7.660;2024-03-06T11:05:35;4.22;;;2.85;;
42840;SDS011;28491;46.898;7.660;2024-03-06T11:08:02;5.57;;;3.42;;
42840;SDS011;28491;46.898;7.660;2024-03-06T11:10:34;4.35;;;2.92;;
42840;SDS011;28491;46.898;7.660;2024-03-06T11:13:02;6.05;;;4.05;;
42840;SDS011;28491;46.898;7.660;2024-03-06T11:15:29;5.05;;;3.75;;
42840;SDS011;28491;46.898;7.660;2024-03-06T11:17:55;6.38;;;4.28;;
42840;SDS011;28491;46.898;7.660;2024-03-06T11:20:21;5.95;;;3.78;;
42840;SDS011;28491;46.898;7.660;2024-03-06T11:30:56;7.97;;;4.70;;
42840;SDS011;28491;46.898;7.660;2024-03-06T11:33:37;9.52;;;5.53;;
42840;SDS011;28491;46.898;7.660;2024-03-06T11:38:55;7.97;;;5.35;;
42840;SDS011;28491;46.898;7.660;2024-03-06T11:41:33;5.32;;;4.35;;
42840;SDS011;28491;46.898;7.660;2024-03-06T11:44:12;5.80;;;4.20;;
42840;SDS011;28491;46.898;7.660;2024-03-06T11:46:43;5.45;;;3.70;;
42840;SDS011;28491;46.898;7.660;2024-03-06T11:49:20;7.85;;;4.25;;
42840;SDS011;28491;46.898;7.660;2024-03-06T11:51:49;7.82;;;4.05;;
42840;SDS011;28491;46.898;7.660;2024-03-06T11:56:44;6.38;;;4.75;;
42840;SDS011;28491;46.898;7.660;2024-03-06T11:59:12;4.93;;;3.78;;
42840;SDS011;28491;46.898;7.660;2024-03-06T12:01:37;5.95;;;4.00;;
42840;SDS011;28491;46.898;7.660;2024-03-06T12:04:03;5.07;;;3.40;;
42840;SDS011;28491;46.898;7.660;2024-03-06T12:06:29;6.13;;;3.38;;
42840;SDS011;28491;46.898;7.660;2024-03-06T12:08:57;5.18;;;2.80;;
42840;SDS011;28491;46.898;7.660;2024-03-06T12:11:23;4.25;;;3.22;;
42840;SDS011;28491;46.898;7.660;2024-03-06T12:13:50;6.35;;;3.35;;
42840;SDS011;28491;46.898;7.660;2024-03-06T12:16:17;5.07;;;3.42;;
42840;SDS011;28491;46.898;7.660;2024-03-06T12:18:42;4.88;;;3.33;;
42840;SDS011;28491;46.898;7.660;2024-03-06T12:21:10;5.15;;;3.33;;
42840;SDS011;28491;46.898;7.660;2024-03-06T12:23:36;5.53;;;3.25;;
42840;SDS011;28491;46.898;7.660;2024-03-06T12:26:05;4.18;;;3.33;;
42840;SDS011;28491;46.898;7.660;2024-03-06T12:28:34;7.72;;;3.20;;
42840;SDS011;28491;46.898;7.660;2024-03-06T12:31:01;4.07;;;2.95;;
42840;SDS011;28491;46.898;7.660;2024-03-06T12:33:28;8.88;;;3.95;;
42840;SDS011;28491;46.898;7.660;2024-03-06T12:36:01;5.43;;;3.53;;
42840;SDS011;28491;46.898;7.660;2024-03-06T12:38:30;5.97;;;3.55;;
42840;SDS011;28491;46.898;7.660;2024-03-06T12:40:56;5.72;;;3.45;;
42840;SDS011;28491;46.898;7.660;2024-03-06T12:43:22;4.57;;;3.35;;
42840;SDS011;28491;46.898;7.660;2024-03-06T12:45:47;5.65;;;3.33;;
42840;SDS011;28491;46.898;7.660;2024-03-06T12:48:13;6.78;;;3.67;;
42840;SDS011;28491;46.898;7.660;2024-03-06T12:50:38;4.93;;;3.72;;
42840;SDS011;28491;46.898;7.660;2024-03-06T12:53:04;3.65;;;3.03;;
42840;SDS011;28491;46.898;7.660;2024-03-06T12:55:30;3.95;;;2.53;;
42840;SDS011;28491;46.898;7.660;2024-03-06T12:57:56;3.75;;;2.75;;
42840;SDS011;28491;46.898;7.660;2024-03-06T13:00:22;5.88;;;3.17;;
42840;SDS011;28491;46.898;7.660;2024-03-06T13:02:49;5.47;;;3.15;;
42840;SDS011;28491;46.898;7.660;2024-03-06T13:05:15;6.28;;;3.65;;
42840;SDS011;28491;46.898;7.660;2024-03-06T13:07:42;3.58;;;2.47;;
42840;SDS011;28491;46.898;7.660;2024-03-06T13:10:09;6.85;;;2.97;;
42840;SDS011;28491;46.898;7.660;2024-03-06T13:12:38;4.05;;;2.80;;
42840;SDS011;28491;46.898;7.660;2024-03-06T13:15:04;4.00;;;3.03;;
42840;SDS011;28491;46.898;7.660;2024-03-06T13:17:32;5.85;;;3.72;;
42840;SDS011;28491;46.898;7.660;2024-03-06T13:19:58;4.95;;;3.67;;
42840;SDS011;28491;46.898;7.660;2024-03-06T13:22:23;4.00;;;3.13;;
42840;SDS011;28491;46.898;7.660;2024-03-06T13:24:49;4.47;;;2.92;;
42840;SDS011;28491;46.898;7.660;2024-03-06T13:27:16;7.07;;;3.10;;
42840;SDS011;28491;46.898;7.660;2024-03-06T13:29:42;4.60;;;2.63;;
42840;SDS011;28491;46.898;7.660;2024-03-06T13:32:07;5.15;;;3.28;;
42840;SDS011;28491;46.898;7.660;2024-03-06T13:34:33;5.57;;;3.38;;
42840;SDS011;28491;46.898;7.660;2024-03-06T13:36:58;5.03;;;3.70;;
42840;SDS011;28491;46.898;7.660;2024-03-06T13:39:24;5.50;;;3.83;;
42840;SDS011;28491;46.898;7.660;2024-03-06T13:41:50;6.18;;;3.80;;
42840;SDS011;28491;46.898;7.660;2024-03-06T13:44:17;6.72;;;3.80;;
42840;SDS011;28491;46.898;7.660;2024-03-06T13:46:43;5.82;;;3.97;;
42840;SDS011;28491;46.898;7.660;2024-03-06T13:49:12;5.07;;;3.50;;
42840;SDS011;28491;46.898;7.660;2024-03-06T13:52:01;4.43;;;3.30;;
42840;SDS011;28491;46.898;7.660;2024-03-06T13:54:26;4.03;;;3.35;;
42840;SDS011;28491;46.898;7.660;2024-03-06T13:56:52;5.13;;;3.60;;
42840;SDS011;28491;46.898;7.660;2024-03-06T13:59:21;4.97;;;3.33;;
42840;SDS011;28491;46.898;7.660;2024-03-06T14:01:46;4.50;;;3.15;;
42840;SDS011;28491;46.898;7.660;2024-03-06T14:04:14;5.28;;;3.35;;
42840;SDS011;28491;46.898;7.660;2024-03-06T14:06:39;5.63;;;3.92;;
42840;SDS011;28491;46.898;7.660;2024-03-06T14:09:05;4.93;;;3.60;;
42840;SDS011;28491;46.898;7.660;2024-03-06T14:11:32;5.05;;;3.63;;
42840;SDS011;28491;46.898;7.660;2024-03-06T14:14:00;5.78;;;3.45;;
42840;SDS011;28491;46.898;7.660;2024-03-06T14:16:26;4.30;;;3.30;;
42840;SDS011;28491;46.898;7.660;2024-03-06T14:18:52;7.50;;;3.85;;
42840;SDS011;28491;46.898;7.660;2024-03-06T14:21:18;4.57;;;3.58;;
42840;SDS011;28491;46.898;7.660;2024-03-06T14:23:44;4.93;;;3.10;;
42840;SDS011;28491;46.898;7.660;2024-03-06T14:26:09;5.35;;;3.53;;
42840;SDS011;28491;46.898;7.660;2024-03-06T14:28:35;6.22;;;3.90;;
42840;SDS011;28491;46.898;7.660;2024-03-06T14:31:00;6.65;;;3.00;;
42840;SDS011;28491;46.898;7.660;2024-03-06T14:33:26;4.40;;;3.28;;
42840;SDS011;28491;46.898;7.660;2024-03-06T14:35:52;3.72;;;2.63;;
42840;SDS011;28491;46.898;7.660;2024-03-06T14:38:17;4.50;;;3.35;;
42840;SDS011;28491;46.898;7.660;2024-03-06T14:40:43;4.28;;;3.08;;
42840;SDS011;28491;46.898;7.660;2024-03-06T14:43:09;5.70;;;3.03;;
42840;SDS011;28491;46.898;7.660;2024-03-06T14:45:35;4.20;;;3.22;;
42840;SDS011;28491;46.898;7.660;2024-03-06T14:48:06;5.53;;;3.63;;
42840;SDS011;28491;46.898;7.660;2024-03-06T14:50:32;4.13;;;3.00;;
42840;SDS011;28491;46.898;7.660;2024-03-06T14:52:58;4.68;;;3.58;;
42840;SDS011;28491;46.898;7.660;2024-03-06T14:55:23;4.90;;;3.28;;
42840;SDS011;28491;46.898;7.660;2024-03-06T14:57:49;7.85;;;4.45;;
42840;SDS011;28491;46.898;7.660;2024-03-06T15:00:15;6.78;;;4.05;;
42840;SDS011;28491;46.898;7.660;2024-03-06T15:02:42;5.25;;;3.30;;
42840;SDS011;28491;46.898;7.660;2024-03-06T15:05:08;6.03;;;4.40;;
42840;SDS011;28491;46.898;7.660;2024-03-06T15:07:37;6.38;;;4.50;;
42840;SDS011;28491;46.898;7.660;2024-03-06T15:10:03;7.03;;;5.10;;
42840;SDS011;28491;46.898;7.660;2024-03-06T15:12:30;6.68;;;4.88;;
42840;SDS011;28491;46.898;7.660;2024-03-06T15:14:55;8.25;;;4.93;;